sensor_id;sensor_type;location;lat;lon;timestamp;P1;durP1;ratioP1;P2;durP2;ratioP2
71562;SDS011;59391;52.504;13.438;2023-09-19T00:02:16;6.78;;;3.60;;
71562;SDS011;59391;52.504;13.438;2023-09-19T00:04:43;5.43;;;3.10;;
71562;SDS011;59391;52.504;13.438;2023-09-19T00:07:09;4.93;;;3.03;;
71562;SDS011;59391;52.504;13.438;2023-09-19T00:09:35;5.50;;;2.95;;
71562;SDS011;59391;52.504;13.438;2023-09-19T00:12:05;7.35;;;3.40;;
71562;SDS011;59391;52.504;13.438;2023-09-19T00:14:32;7.57;;;3.22;;
71562;SDS011;59391;52.504;13.438;2023-09-19T00:17:03;7.13;;;3.50;;
71562;SDS011;59391;52.504;13.438;2023-09-19T00:19:34;6.40;;;3.25;;
71562;SDS011;59391;52.504;13.438;2023-09-19T00:22:00;6.97;;;3.30;;
71562;SDS011;59391;52.504;13.438;2023-09-19T00:24:27;5.88;;;3.13;;
71562;SDS011;59391;52.504;13.438;2023-09-19T00:26:53;6.17;;;3.67;;
71562;SDS011;59391;52.504;13.438;2023-09-19T00:29:20;6.28;;;3.13;;
71562;SDS011;59391;52.504;13.438;2023-09-19T00:31:48;5.18;;;3.10;;
71562;SDS011;59391;52.504;13.438;2023-09-19T00:34:14;6.93;;;3.33;;
71562;SDS011;59391;52.504;13.438;2023-09-19T00:36:41;6.83;;;3.03;;
71562;SDS011;59391;52.504;13.438;2023-09-19T00:39:08;5.40;;;2.95;;
71562;SDS011;59391;52.504;13.438;2023-09-19T00:41:33;7.32;;;3.45;;
71562;SDS011;59391;52.504;13.438;2023-09-19T00:44:03;6.88;;;3.35;;
71562;SDS011;59391;52.504;13.438;2023-09-19T00:46:29;5.57;;;3.20;;
71562;SDS011;59391;52.504;13.438;2023-09-19T00:48:57;6.40;;;2.78;;
71562;SDS011;59391;52.504;13.438;2023-09-19T00:51:24;6.28;;;3.20;;
71562;SDS011;59391;52.504;13.438;2023-09-19T00:53:52;6.15;;;3.15;;
71562;SDS011;59391;52.504;13.438;2023-09-19T00:56:19;6.25;;;3.17;;
71562;SDS011;59391;52.504;13.438;2023-09-19T00:58:45;5.88;;;3.03;;
71562;SDS011;59391;52.504;13.438;2023-09-19T01:01:12;6.15;;;3.13;;
71562;SDS011;59391;52.504;13.438;2023-09-19T01:03:39;5.80;;;3.17;;
71562;SDS011;59391;52.504;13.438;2023-09-19T01:06:07;5.78;;;3.47;;
71562;SDS011;59391;52.504;13.438;2023-09-19T01:08:33;5.82;;;3.40;;
71562;SDS011;59391;52.504;13.438;2023-09-19T01:17:05;6.43;;;3.17;;
71562;SDS011;59391;52.504;13.438;2023-09-19T01:22:48;7.50;;;3.20;;
71562;SDS011;59391;52.504;13.438;2023-09-19T01:28:44;7.57;;;3.38;;
71562;SDS011;59391;52.504;13.438;2023-09-19T01:31:38;6.00;;;3.28;;
71562;SDS011;59391;52.504;13.438;2023-09-19T01:34:07;6.07;;;3.40;;
71562;SDS011;59391;52.504;13.438;2023-09-19T01:36:34;7.40;;;3.10;;
71562;SDS011;59391;52.504;13.438;2023-09-19T01:39:08;4.88;;;2.95;;
71562;SDS011;59391;52.504;13.438;2023-09-19T01:41:47;5.75;;;3.30;;
71562;SDS011;59391;52.504;13.438;2023-09-19T01:44:40;7.63;;;3.38;;
71562;SDS011;59391;52.504;13.438;2023-09-19T01:47:13;5.55;;;3.28;;
71562;SDS011;59391;52.504;13.438;2023-09-19T01:50:14;6.90;;;3.30;;
71562;SDS011;59391;52.504;13.438;2023-09-19T01:53:10;7.65;;;3.25;;
71562;SDS011;59391;52.504;13.438;2023-09-19T01:55:50;5.88;;;3.00;;
71562;SDS011;59391;52.504;13.438;2023-09-19T01:58:20;7.80;;;3.30;;
71562;SDS011;59391;52.504;13.438;2023-09-19T02:00:55;8.68;;;3.28;;
71562;SDS011;59391;52.504;13.438;2023-09-19T02:03:25;6.40;;;3.13;;
71562;SDS011;59391;52.504;13.438;2023-09-19T02:05:53;5.68;;;3.28;;
71562;SDS011;59391;52.504;13.438;2023-09-19T02:08:20;6.15;;;3.15;;
71562;SDS011;59391;52.504;13.438;2023-09-19T02:10:50;4.93;;;2.80;;
71562;SDS011;59391;52.504;13.438;2023-09-19T02:13:18;6.13;;;2.90;;
71562;SDS011;59391;52.504;13.438;2023-09-19T02:15:45;6.85;;;2.75;;
71562;SDS011;59391;52.504;13.438;2023-09-19T02:18:11;5.80;;;3.08;;
71562;SDS011;59391;52.504;13.438;2023-09-19T02:20:38;4.78;;;3.17;;
71562;SDS011;59391;52.504;13.438;2023-09-19T02:23:04;6.13;;;2.97;;
71562;SDS011;59391;52.504;13.438;2023-09-19T02:25:31;5.15;;;2.97;;
71562;SDS011;59391;52.504;13.438;2023-09-19T02:27:57;5.30;;;3.05;;
71562;SDS011;59391;52.504;13.438;2023-09-19T02:30:28;4.73;;;2.97;;
71562;SDS011;59391;52.504;13.438;2023-09-19T02:32:54;4.63;;;3.13;;
71562;SDS011;59391;52.504;13.438;2023-09-19T02:35:20;6.50;;;3.00;;
71562;SDS011;59391;52.504;13.438;2023-09-19T02:37:46;6.43;;;3.50;;
71562;SDS011;59391;52.504;13.438;2023-09-19T02:40:12;5.43;;;2.90;;
71562;SDS011;59391;52.504;13.438;2023-09-19T02:42:48;6.30;;;3.17;;
71562;SDS011;59391;52.504;13.438;2023-09-19T02:45:18;6.30;;;3.28;;
71562;SDS011;59391;52.504;13.438;2023-09-19T02:47:44;6.68;;;3.38;;
71562;SDS011;59391;52.504;13.438;2023-09-19T02:50:11;7.32;;;3.58;;
71562;SDS011;59391;52.504;13.438;2023-09-19T02:52:38;8.32;;;2.95;;
71562;SDS011;59391;52.504;13.438;2023-09-19T02:55:08;6.38;;;3.40;;
71562;SDS011;59391;52.504;13.438;2023-09-19T02:57:34;5.13;;;3.40;;
71562;SDS011;59391;52.504;13.438;2023-09-19T03:00:05;6.45;;;3.08;;
71562;SDS011;59391;52.504;13.438;2023-09-19T03:02:37;6.22;;;3.40;;
71562;SDS011;59391;52.504;13.438;2023-09-19T03:05:05;8.07;;;3.47;;
71562;SDS011;59391;52.504;13.438;2023-09-19T03:07:32;7.35;;;3.22;;
71562;SDS011;59391;52.504;13.438;2023-09-19T03:09:58;5.75;;;3.00;;
71562;SDS011;59391;52.504;13.438;2023-09-19T03:12:24;5.47;;;3.20;;
71562;SDS011;59391;52.504;13.438;2023-09-19T03:14:53;5.78;;;3.03;;
71562;SDS011;59391;52.504;13.438;2023-09-19T03:17:20;5.50;;;2.72;;
71562;SDS011;59391;52.504;13.438;2023-09-19T03:19:46;5.45;;;2.95;;
71562;SDS011;59391;52.504;13.438;2023-09-19T03:22:12;6.80;;;3.10;;
71562;SDS011;59391;52.504;13.438;2023-09-19T03:24:43;5.60;;;3.10;;
71562;SDS011;59391;52.504;13.438;2023-09-19T03:27:09;6.40;;;2.60;;
71562;SDS011;59391;52.504;13.438;2023-09-19T03:29:35;5.57;;;2.78;;
71562;SDS011;59391;52.504;13.438;2023-09-19T03:32:01;6.35;;;2.72;;
71562;SDS011;59391;52.504;13.438;2023-09-19T03:34:28;6.32;;;2.80;;
71562;SDS011;59391;52.504;13.438;2023-09-19T03:36:54;5.20;;;2.80;;
71562;SDS011;59391;52.504;13.438;2023-09-19T03:39:20;5.80;;;2.72;;
71562;SDS011;59391;52.504;13.438;2023-09-19T03:41:46;5.27;;;2.80;;
71562;SDS011;59391;52.504;13.438;2023-09-19T03:44:11;5.00;;;2.75;;
71562;SDS011;59391;52.504;13.438;2023-09-19T03:46:37;5.43;;;3.00;;
71562;SDS011;59391;52.504;13.438;2023-09-19T03:49:03;4.80;;;2.78;;
71562;SDS011;59391;52.504;13.438;2023-09-19T03:51:29;5.00;;;2.63;;
71562;SDS011;59391;52.504;13.438;2023-09-19T03:53:55;4.93;;;2.67;;
71562;SDS011;59391;52.504;13.438;2023-09-19T03:56:21;4.07;;;2.53;;
71562;SDS011;59391;52.504;13.438;2023-09-19T03:58:47;4.20;;;2.80;;
71562;SDS011;59391;52.504;13.438;2023-09-19T04:01:12;5.22;;;2.60;;
71562;SDS011;59391;52.504;13.438;2023-09-19T04:03:38;4.07;;;2.67;;
71562;SDS011;59391;52.504;13.438;2023-09-19T04:06:13;4.57;;;2.55;;
71562;SDS011;59391;52.504;13.438;2023-09-19T04:08:40;4.97;;;2.60;;
71562;SDS011;59391;52.504;13.438;2023-09-19T04:11:05;3.97;;;2.42;;
71562;SDS011;59391;52.504;13.438;2023-09-19T04:13:31;5.17;;;2.70;;
71562;SDS011;59391;52.504;13.438;2023-09-19T04:15:57;5.65;;;2.90;;
71562;SDS011;59391;52.504;13.438;2023-09-19T04:18:22;6.27;;;2.63;;
71562;SDS011;59391;52.504;13.438;2023-09-19T04:20:51;5.35;;;2.63;;
71562;SDS011;59391;52.504;13.438;2023-09-19T04:23:18;5.60;;;2.78;;
71562;SDS011;59391;52.504;13.438;2023-09-19T04:25:47;5.32;;;3.20;;
71562;SDS011;59391;52.504;13.438;2023-09-19T04:28:13;6.38;;;2.90;;
71562;SDS011;59391;52.504;13.438;2023-09-19T04:30:39;5.78;;;2.90;;
71562;SDS011;59391;52.504;13.438;2023-09-19T04:33:07;5.60;;;2.90;;
71562;SDS011;59391;52.504;13.438;2023-09-19T04:35:33;4.60;;;2.70;;
71562;SDS011;59391;52.504;13.438;2023-09-19T04:37:59;5.43;;;2.78;;
71562;SDS011;59391;52.504;13.438;2023-09-19T04:40:25;5.45;;;2.90;;
71562;SDS011;59391;52.504;13.438;2023-09-19T04:42:54;5.33;;;2.63;;
71562;SDS011;59391;52.504;13.438;2023-09-19T04:45:23;4.15;;;2.33;;
71562;SDS011;59391;52.504;13.438;2023-09-19T04:47:50;5.32;;;2.67;;
71562;SDS011;59391;52.504;13.438;2023-09-19T04:50:15;5.28;;;2.40;;
71562;SDS011;59391;52.504;13.438;2023-09-19T04:52:43;4.38;;;3.03;;
71562;SDS011;59391;52.504;13.438;2023-09-19T04:55:10;5.40;;;2.70;;
71562;SDS011;59391;52.504;13.438;2023-09-19T04:57:42;5.68;;;2.53;;
71562;SDS011;59391;52.504;13.438;2023-09-19T05:00:11;5.53;;;2.83;;
71562;SDS011;59391;52.504;13.438;2023-09-19T05:02:39;4.50;;;2.70;;
71562;SDS011;59391;52.504;13.438;2023-09-19T05:05:07;4.88;;;2.63;;
71562;SDS011;59391;52.504;13.438;2023-09-19T05:07:35;4.90;;;2.70;;
71562;SDS011;59391;52.504;13.438;2023-09-19T05:10:01;4.13;;;2.50;;
71562;SDS011;59391;52.504;13.438;2023-09-19T05:12:30;4.65;;;2.72;;
71562;SDS011;59391;52.504;13.438;2023-09-19T05:15:00;4.57;;;2.53;;
71562;SDS011;59391;52.504;13.438;2023-09-19T05:17:33;7.40;;;2.90;;
71562;SDS011;59391;52.504;13.438;2023-09-19T05:20:00;4.78;;;2.60;;
71562;SDS011;59391;52.504;13.438;2023-09-19T05:22:40;4.85;;;2.72;;
71562;SDS011;59391;52.504;13.438;2023-09-19T05:25:09;5.38;;;2.78;;
71562;SDS011;59391;52.504;13.438;2023-09-19T05:27:36;5.15;;;2.85;;
71562;SDS011;59391;52.504;13.438;2023-09-19T05:30:01;4.45;;;2.70;;
71562;SDS011;59391;52.504;13.438;2023-09-19T05:32:28;4.70;;;2.72;;
71562;SDS011;59391;52.504;13.438;2023-09-19T05:34:53;5.07;;;2.90;;
71562;SDS011;59391;52.504;13.438;2023-09-19T05:37:21;4.75;;;2.65;;
71562;SDS011;59391;52.504;13.438;2023-09-19T05:39:48;5.13;;;3.00;;
71562;SDS011;59391;52.504;13.438;2023-09-19T05:42:14;6.07;;;3.20;;
71562;SDS011;59391;52.504;13.438;2023-09-19T05:44:40;6.35;;;3.10;;
71562;SDS011;59391;52.504;13.438;2023-09-19T05:47:05;5.73;;;2.97;;
71562;SDS011;59391;52.504;13.438;2023-09-19T05:49:34;5.00;;;3.00;;
71562;SDS011;59391;52.504;13.438;2023-09-19T05:52:06;4.57;;;3.08;;
71562;SDS011;59391;52.504;13.438;2023-09-19T05:54:32;5.70;;;3.00;;
71562;SDS011;59391;52.504;13.438;2023-09-19T05:56:59;4.63;;;3.00;;
71562;SDS011;59391;52.504;13.438;2023-09-19T05:59:26;6.05;;;3.30;;
71562;SDS011;59391;52.504;13.438;2023-09-19T06:01:52;6.57;;;3.15;;
71562;SDS011;59391;52.504;13.438;2023-09-19T06:04:18;5.67;;;2.97;;
71562;SDS011;59391;52.504;13.438;2023-09-19T06:06:44;6.18;;;2.97;;
71562;SDS011;59391;52.504;13.438;2023-09-19T06:09:10;5.20;;;3.00;;
71562;SDS011;59391;52.504;13.438;2023-09-19T06:11:36;4.40;;;2.97;;
71562;SDS011;59391;52.504;13.438;2023-09-19T06:14:02;5.45;;;3.03;;
71562;SDS011;59391;52.504;13.438;2023-09-19T06:16:29;5.78;;;3.40;;
71562;SDS011;59391;52.504;13.438;2023-09-19T06:18:57;5.32;;;2.92;;
71562;SDS011;59391;52.504;13.438;2023-09-19T06:21:24;7.30;;;3.20;;
71562;SDS011;59391;52.504;13.438;2023-09-19T06:23:52;6.90;;;3.15;;
71562;SDS011;59391;52.504;13.438;2023-09-19T06:26:19;5.72;;;3.33;;
71562;SDS011;59391;52.504;13.438;2023-09-19T06:28:44;5.73;;;3.20;;
71562;SDS011;59391;52.504;13.438;2023-09-19T06:31:10;6.93;;;3.20;;
71562;SDS011;59391;52.504;13.438;2023-09-19T06:33:36;5.30;;;3.03;;
71562;SDS011;59391;52.504;13.438;2023-09-19T06:36:05;5.95;;;2.85;;
71562;SDS011;59391;52.504;13.438;2023-09-19T06:38:32;8.82;;;3.63;;
71562;SDS011;59391;52.504;13.438;2023-09-19T06:41:02;5.23;;;3.07;;
71562;SDS011;59391;52.504;13.438;2023-09-19T06:43:32;5.35;;;2.70;;
71562;SDS011;59391;52.504;13.438;2023-09-19T06:45:59;5.97;;;3.42;;
71562;SDS011;59391;52.504;13.438;2023-09-19T06:48:26;8.30;;;3.38;;
71562;SDS011;59391;52.504;13.438;2023-09-19T06:50:54;8.20;;;3.40;;
71562;SDS011;59391;52.504;13.438;2023-09-19T06:53:20;6.03;;;3.07;;
71562;SDS011;59391;52.504;13.438;2023-09-19T06:55:48;7.65;;;3.35;;
71562;SDS011;59391;52.504;13.438;2023-09-19T06:58:15;7.72;;;3.67;;
71562;SDS011;59391;52.504;13.438;2023-09-19T07:00:41;6.35;;;3.38;;
71562;SDS011;59391;52.504;13.438;2023-09-19T07:03:08;7.18;;;3.55;;
71562;SDS011;59391;52.504;13.438;2023-09-19T07:05:36;6.10;;;3.40;;
71562;SDS011;59391;52.504;13.438;2023-09-19T07:08:08;5.95;;;2.92;;
71562;SDS011;59391;52.504;13.438;2023-09-19T07:10:37;5.03;;;3.30;;
71562;SDS011;59391;52.504;13.438;2023-09-19T07:13:10;5.57;;;3.50;;
71562;SDS011;59391;52.504;13.438;2023-09-19T07:15:36;7.53;;;3.87;;
71562;SDS011;59391;52.504;13.438;2023-09-19T07:18:06;5.60;;;3.33;;
71562;SDS011;59391;52.504;13.438;2023-09-19T07:20:34;6.13;;;3.60;;
71562;SDS011;59391;52.504;13.438;2023-09-19T07:23:00;5.47;;;3.50;;
71562;SDS011;59391;52.504;13.438;2023-09-19T07:25:26;5.22;;;3.45;;
71562;SDS011;59391;52.504;13.438;2023-09-19T07:27:54;5.70;;;3.08;;
71562;SDS011;59391;52.504;13.438;2023-09-19T07:30:21;6.85;;;3.33;;
71562;SDS011;59391;52.504;13.438;2023-09-19T07:32:47;7.70;;;3.50;;
71562;SDS011;59391;52.504;13.438;2023-09-19T07:35:13;7.03;;;3.60;;
71562;SDS011;59391;52.504;13.438;2023-09-19T07:37:40;6.68;;;3.78;;
71562;SDS011;59391;52.504;13.438;2023-09-19T07:40:05;7.40;;;3.90;;
71562;SDS011;59391;52.504;13.438;2023-09-19T07:42:32;6.00;;;3.70;;
71562;SDS011;59391;52.504;13.438;2023-09-19T07:45:01;6.32;;;3.80;;
71562;SDS011;59391;52.504;13.438;2023-09-19T07:47:28;7.60;;;3.42;;
71562;SDS011;59391;52.504;13.438;2023-09-19T07:49:55;6.77;;;3.83;;
71562;SDS011;59391;52.504;13.438;2023-09-19T07:52:21;6.90;;;3.80;;
71562;SDS011;59391;52.504;13.438;2023-09-19T07:54:47;6.35;;;3.80;;
71562;SDS011;59391;52.504;13.438;2023-09-19T07:57:14;7.85;;;4.10;;
71562;SDS011;59391;52.504;13.438;2023-09-19T07:59:40;7.80;;;3.90;;
71562;SDS011;59391;52.504;13.438;2023-09-19T08:02:07;5.65;;;3.83;;
71562;SDS011;59391;52.504;13.438;2023-09-19T08:04:40;8.50;;;4.50;;
71562;SDS011;59391;52.504;13.438;2023-09-19T08:07:08;9.82;;;3.97;;
71562;SDS011;59391;52.504;13.438;2023-09-19T08:09:33;6.43;;;4.03;;
71562;SDS011;59391;52.504;13.438;2023-09-19T08:12:00;6.18;;;4.30;;
71562;SDS011;59391;52.504;13.438;2023-09-19T08:14:30;6.75;;;4.03;;
71562;SDS011;59391;52.504;13.438;2023-09-19T08:16:58;6.73;;;3.60;;
71562;SDS011;59391;52.504;13.438;2023-09-19T08:19:25;5.53;;;3.47;;
71562;SDS011;59391;52.504;13.438;2023-09-19T08:21:57;8.60;;;3.72;;
71562;SDS011;59391;52.504;13.438;2023-09-19T08:24:29;6.40;;;3.60;;
71562;SDS011;59391;52.504;13.438;2023-09-19T08:26:56;7.50;;;3.60;;
71562;SDS011;59391;52.504;13.438;2023-09-19T08:29:23;6.10;;;3.50;;
71562;SDS011;59391;52.504;13.438;2023-09-19T08:31:53;5.45;;;3.22;;
71562;SDS011;59391;52.504;13.438;2023-09-19T08:34:20;6.55;;;3.63;;
71562;SDS011;59391;52.504;13.438;2023-09-19T08:36:48;7.38;;;3.78;;
71562;SDS011;59391;52.504;13.438;2023-09-19T08:39:15;7.60;;;3.60;;
71562;SDS011;59391;52.504;13.438;2023-09-19T08:41:42;8.27;;;3.90;;
71562;SDS011;59391;52.504;13.438;2023-09-19T08:44:07;6.60;;;3.90;;
71562;SDS011;59391;52.504;13.438;2023-09-19T08:46:35;6.10;;;4.15;;
71562;SDS011;59391;52.504;13.438;2023-09-19T08:49:24;7.73;;;3.67;;
71562;SDS011;59391;52.504;13.438;2023-09-19T08:52:05;7.68;;;3.70;;
71562;SDS011;59391;52.504;13.438;2023-09-19T08:54:45;6.13;;;3.60;;
71562;SDS011;59391;52.504;13.438;2023-09-19T08:57:16;7.57;;;3.70;;
71562;SDS011;59391;52.504;13.438;2023-09-19T08:59:47;6.70;;;3.78;;
71562;SDS011;59391;52.504;13.438;2023-09-19T09:02:16;9.30;;;3.87;;
71562;SDS011;59391;52.504;13.438;2023-09-19T09:04:46;8.45;;;3.90;;
71562;SDS011;59391;52.504;13.438;2023-09-19T09:07:14;8.38;;;3.78;;
71562;SDS011;59391;52.504;13.438;2023-09-19T09:09:42;6.97;;;3.60;;
71562;SDS011;59391;52.504;13.438;2023-09-19T09:12:10;5.78;;;3.13;;
71562;SDS011;59391;52.504;13.438;2023-09-19T09:14:38;7.07;;;3.67;;
71562;SDS011;59391;52.504;13.438;2023-09-19T09:17:05;8.90;;;3.58;;
71562;SDS011;59391;52.504;13.438;2023-09-19T09:19:32;7.90;;;3.30;;
71562;SDS011;59391;52.504;13.438;2023-09-19T09:22:07;8.00;;;3.30;;
71562;SDS011;59391;52.504;13.438;2023-09-19T09:24:34;7.65;;;3.40;;
71562;SDS011;59391;52.504;13.438;2023-09-19T09:27:03;7.45;;;3.22;;
71562;SDS011;59391;52.504;13.438;2023-09-19T09:29:43;7.20;;;3.22;;
71562;SDS011;59391;52.504;13.438;2023-09-19T09:34:59;7.10;;;3.20;;
71562;SDS011;59391;52.504;13.438;2023-09-19T09:37:26;8.00;;;3.40;;
71562;SDS011;59391;52.504;13.438;2023-09-19T09:39:58;8.30;;;3.60;;
71562;SDS011;59391;52.504;13.438;2023-09-19T09:42:43;6.32;;;3.75;;
71562;SDS011;59391;52.504;13.438;2023-09-19T09:45:21;7.03;;;3.50;;
71562;SDS011;59391;52.504;13.438;2023-09-19T09:47:57;7.27;;;3.47;;
71562;SDS011;59391;52.504;13.438;2023-09-19T09:51:05;6.95;;;3.50;;
71562;SDS011;59391;52.504;13.438;2023-09-19T09:53:23;7.22;;;3.88;;
71562;SDS011;59391;52.504;13.438;2023-09-19T09:55:59;6.63;;;3.30;;
71562;SDS011;59391;52.504;13.438;2023-09-19T09:58:50;7.90;;;3.63;;
71562;SDS011;59391;52.504;13.438;2023-09-19T10:01:24;7.10;;;3.15;;
71562;SDS011;59391;52.504;13.438;2023-09-19T10:03:56;7.32;;;3.20;;
71562;SDS011;59391;52.504;13.438;2023-09-19T10:06:25;7.32;;;3.22;;
71562;SDS011;59391;52.504;13.438;2023-09-19T10:08:58;7.28;;;3.50;;
71562;SDS011;59391;52.504;13.438;2023-09-19T10:11:42;7.77;;;3.67;;
71562;SDS011;59391;52.504;13.438;2023-09-19T10:14:15;7.15;;;3.20;;
71562;SDS011;59391;52.504;13.438;2023-09-19T10:16:45;10.32;;;3.50;;
71562;SDS011;59391;52.504;13.438;2023-09-19T10:19:17;5.85;;;2.72;;
71562;SDS011;59391;52.504;13.438;2023-09-19T10:22:13;7.10;;;3.38;;
71562;SDS011;59391;52.504;13.438;2023-09-19T10:24:45;8.70;;;3.23;;
71562;SDS011;59391;52.504;13.438;2023-09-19T10:27:14;7.53;;;3.15;;
71562;SDS011;59391;52.504;13.438;2023-09-19T10:29:41;6.93;;;3.15;;
71562;SDS011;59391;52.504;13.438;2023-09-19T10:32:09;7.30;;;3.08;;
71562;SDS011;59391;52.504;13.438;2023-09-19T10:34:43;7.53;;;3.50;;
71562;SDS011;59391;52.504;13.438;2023-09-19T10:37:15;7.13;;;3.20;;
71562;SDS011;59391;52.504;13.438;2023-09-19T10:39:48;7.18;;;2.85;;
71562;SDS011;59391;52.504;13.438;2023-09-19T10:42:18;7.40;;;3.10;;
71562;SDS011;59391;52.504;13.438;2023-09-19T10:44:45;8.20;;;3.10;;
71562;SDS011;59391;52.504;13.438;2023-09-19T10:47:18;6.35;;;3.10;;
71562;SDS011;59391;52.504;13.438;2023-09-19T10:49:46;6.47;;;2.90;;
71562;SDS011;59391;52.504;13.438;2023-09-19T10:52:13;7.72;;;3.08;;
71562;SDS011;59391;52.504;13.438;2023-09-19T10:54:48;7.85;;;3.42;;
71562;SDS011;59391;52.504;13.438;2023-09-19T10:57:20;5.70;;;2.70;;
71562;SDS011;59391;52.504;13.438;2023-09-19T11:00:08;10.68;;;3.30;;
71562;SDS011;59391;52.504;13.438;2023-09-19T11:03:16;6.47;;;3.20;;
71562;SDS011;59391;52.504;13.438;2023-09-19T11:08:58;7.63;;;3.33;;
71562;SDS011;59391;52.504;13.438;2023-09-19T11:11:38;8.18;;;3.58;;
71562;SDS011;59391;52.504;13.438;2023-09-19T11:14:14;9.02;;;2.92;;
71562;SDS011;59391;52.504;13.438;2023-09-19T11:30:31;8.63;;;3.10;;
71562;SDS011;59391;52.504;13.438;2023-09-19T11:33:21;6.38;;;2.67;;
71562;SDS011;59391;52.504;13.438;2023-09-19T11:43:54;7.17;;;2.93;;
71562;SDS011;59391;52.504;13.438;2023-09-19T11:46:51;7.38;;;2.88;;
71562;SDS011;59391;52.504;13.438;2023-09-19T11:49:17;7.65;;;2.90;;
71562;SDS011;59391;52.504;13.438;2023-09-19T11:51:51;8.80;;;2.83;;
71562;SDS011;59391;52.504;13.438;2023-09-19T11:54:17;6.87;;;2.50;;
71562;SDS011;59391;52.504;13.438;2023-09-19T11:56:44;6.97;;;2.80;;
71562;SDS011;59391;52.504;13.438;2023-09-19T11:59:11;7.32;;;2.72;;
71562;SDS011;59391;52.504;13.438;2023-09-19T12:01:50;7.05;;;2.97;;
71562;SDS011;59391;52.504;13.438;2023-09-19T12:04:32;10.63;;;3.10;;
71562;SDS011;59391;52.504;13.438;2023-09-19T12:07:10;6.88;;;2.40;;
71562;SDS011;59391;52.504;13.438;2023-09-19T12:09:43;7.82;;;2.63;;
71562;SDS011;59391;52.504;13.438;2023-09-19T12:12:22;6.03;;;2.33;;
71562;SDS011;59391;52.504;13.438;2023-09-19T12:14:53;7.32;;;2.60;;
71562;SDS011;59391;52.504;13.438;2023-09-19T12:17:22;7.90;;;2.70;;
71562;SDS011;59391;52.504;13.438;2023-09-19T12:19:55;6.40;;;2.58;;
71562;SDS011;59391;52.504;13.438;2023-09-19T12:22:21;6.40;;;2.47;;
71562;SDS011;59391;52.504;13.438;2023-09-19T12:24:48;6.15;;;2.55;;
71562;SDS011;59391;52.504;13.438;2023-09-19T12:27:15;7.43;;;2.67;;
71562;SDS011;59391;52.504;13.438;2023-09-19T12:29:45;5.77;;;2.40;;
71562;SDS011;59391;52.504;13.438;2023-09-19T12:32:18;6.55;;;2.03;;
71562;SDS011;59391;52.504;13.438;2023-09-19T12:35:00;5.10;;;2.13;;
71562;SDS011;59391;52.504;13.438;2023-09-19T12:37:32;5.20;;;2.22;;
71562;SDS011;59391;52.504;13.438;2023-09-19T12:40:07;7.30;;;2.28;;
71562;SDS011;59391;52.504;13.438;2023-09-19T12:42:47;7.27;;;2.30;;
71562;SDS011;59391;52.504;13.438;2023-09-19T12:45:17;5.78;;;2.00;;
71562;SDS011;59391;52.504;13.438;2023-09-19T12:53:35;5.85;;;2.28;;
71562;SDS011;59391;52.504;13.438;2023-09-19T12:56:09;5.83;;;2.20;;
71562;SDS011;59391;52.504;13.438;2023-09-19T12:58:52;5.10;;;2.10;;
71562;SDS011;59391;52.504;13.438;2023-09-19T13:01:19;5.03;;;2.25;;
71562;SDS011;59391;52.504;13.438;2023-09-19T13:04:09;7.28;;;2.15;;
71562;SDS011;59391;52.504;13.438;2023-09-19T13:06:37;6.07;;;2.50;;
71562;SDS011;59391;52.504;13.438;2023-09-19T13:09:08;5.47;;;2.40;;
71562;SDS011;59391;52.504;13.438;2023-09-19T13:11:36;5.88;;;2.25;;
71562;SDS011;59391;52.504;13.438;2023-09-19T13:19:44;5.95;;;2.30;;
71562;SDS011;59391;52.504;13.438;2023-09-19T13:25:15;6.05;;;2.00;;
71562;SDS011;59391;52.504;13.438;2023-09-19T13:27:48;5.78;;;2.15;;
71562;SDS011;59391;52.504;13.438;2023-09-19T13:30:19;5.25;;;2.10;;
71562;SDS011;59391;52.504;13.438;2023-09-19T13:32:47;5.95;;;2.38;;
71562;SDS011;59391;52.504;13.438;2023-09-19T13:35:14;6.53;;;2.30;;
71562;SDS011;59391;52.504;13.438;2023-09-19T13:37:41;6.13;;;2.40;;
71562;SDS011;59391;52.504;13.438;2023-09-19T13:40:08;6.55;;;2.50;;
71562;SDS011;59391;52.504;13.438;2023-09-19T13:42:39;8.18;;;1.95;;
71562;SDS011;59391;52.504;13.438;2023-09-19T13:45:06;5.88;;;2.20;;
71562;SDS011;59391;52.504;13.438;2023-09-19T13:47:32;5.13;;;2.43;;
71562;SDS011;59391;52.504;13.438;2023-09-19T13:49:59;5.18;;;2.30;;
71562;SDS011;59391;52.504;13.438;2023-09-19T13:52:29;6.38;;;2.20;;
71562;SDS011;59391;52.504;13.438;2023-09-19T13:54:57;5.35;;;2.35;;
71562;SDS011;59391;52.504;13.438;2023-09-19T13:57:24;5.75;;;2.45;;
71562;SDS011;59391;52.504;13.438;2023-09-19T13:59:51;5.50;;;2.40;;
71562;SDS011;59391;52.504;13.438;2023-09-19T14:02:19;5.65;;;2.50;;
71562;SDS011;59391;52.504;13.438;2023-09-19T14:04:49;7.03;;;2.30;;
71562;SDS011;59391;52.504;13.438;2023-09-19T14:07:16;6.78;;;2.55;;
71562;SDS011;59391;52.504;13.438;2023-09-19T14:09:43;4.97;;;2.42;;
71562;SDS011;59391;52.504;13.438;2023-09-19T14:12:10;5.67;;;2.40;;
71562;SDS011;59391;52.504;13.438;2023-09-19T14:14:38;9.55;;;3.15;;
71562;SDS011;59391;52.504;13.438;2023-09-19T14:17:10;8.60;;;2.22;;
71562;SDS011;59391;52.504;13.438;2023-09-19T14:19:38;6.00;;;2.70;;
71562;SDS011;59391;52.504;13.438;2023-09-19T14:22:07;6.75;;;2.67;;
71562;SDS011;59391;52.504;13.438;2023-09-19T14:24:35;7.03;;;3.10;;
71562;SDS011;59391;52.504;13.438;2023-09-19T14:27:01;5.93;;;2.40;;
71562;SDS011;59391;52.504;13.438;2023-09-19T14:29:29;7.47;;;2.70;;
71562;SDS011;59391;52.504;13.438;2023-09-19T14:31:56;7.45;;;2.78;;
71562;SDS011;59391;52.504;13.438;2023-09-19T14:34:22;6.90;;;2.80;;
71562;SDS011;59391;52.504;13.438;2023-09-19T14:36:48;6.10;;;2.47;;
71562;SDS011;59391;52.504;13.438;2023-09-19T14:39:14;6.18;;;2.05;;
71562;SDS011;59391;52.504;13.438;2023-09-19T14:41:39;5.80;;;2.10;;
71562;SDS011;59391;52.504;13.438;2023-09-19T14:44:05;6.55;;;2.30;;
71562;SDS011;59391;52.504;13.438;2023-09-19T14:46:30;6.10;;;2.30;;
71562;SDS011;59391;52.504;13.438;2023-09-19T14:48:56;5.57;;;2.37;;
71562;SDS011;59391;52.504;13.438;2023-09-19T14:51:24;5.30;;;2.10;;
71562;SDS011;59391;52.504;13.438;2023-09-19T14:53:50;6.57;;;2.65;;
71562;SDS011;59391;52.504;13.438;2023-09-19T14:56:16;6.28;;;2.50;;
71562;SDS011;59391;52.504;13.438;2023-09-19T14:58:47;4.80;;;2.03;;
71562;SDS011;59391;52.504;13.438;2023-09-19T15:01:13;5.85;;;2.42;;
71562;SDS011;59391;52.504;13.438;2023-09-19T15:03:40;5.90;;;2.17;;
71562;SDS011;59391;52.504;13.438;2023-09-19T15:06:09;5.80;;;2.40;;
71562;SDS011;59391;52.504;13.438;2023-09-19T15:08:44;7.30;;;2.72;;
71562;SDS011;59391;52.504;13.438;2023-09-19T15:11:12;5.63;;;2.23;;
71562;SDS011;59391;52.504;13.438;2023-09-19T15:13:43;4.47;;;1.98;;
71562;SDS011;59391;52.504;13.438;2023-09-19T15:16:10;6.75;;;2.35;;
71562;SDS011;59391;52.504;13.438;2023-09-19T15:18:37;6.13;;;2.50;;
71562;SDS011;59391;52.504;13.438;2023-09-19T15:21:10;6.80;;;2.53;;
71562;SDS011;59391;52.504;13.438;2023-09-19T15:23:38;7.30;;;2.50;;
71562;SDS011;59391;52.504;13.438;2023-09-19T15:26:07;6.43;;;2.88;;
71562;SDS011;59391;52.504;13.438;2023-09-19T15:28:36;5.60;;;2.75;;
71562;SDS011;59391;52.504;13.438;2023-09-19T15:31:03;8.30;;;3.10;;
71562;SDS011;59391;52.504;13.438;2023-09-19T15:33:31;6.68;;;2.80;;
71562;SDS011;59391;52.504;13.438;2023-09-19T15:36:11;6.07;;;2.80;;
71562;SDS011;59391;52.504;13.438;2023-09-19T15:41:34;6.35;;;2.65;;
71562;SDS011;59391;52.504;13.438;2023-09-19T15:44:10;6.75;;;2.97;;
71562;SDS011;59391;52.504;13.438;2023-09-19T15:46:40;7.78;;;2.80;;